sensor_id;sensor_type;location;lat;lon;timestamp;temperature;humidity
11423;DHT22;5768;51.476;7.210;2022-09-24T00:04:58;15.50;14.30
11423;DHT22;5768;51.476;7.210;2022-09-24T00:10:00;15.60;14.30
11423;DHT22;5768;51.476;7.210;2022-09-24T00:15:02;15.60;14.40
11423;DHT22;5768;51.476;7.210;2022-09-24T00:20:07;15.40;14.60
11423;DHT22;5768;51.476;7.210;2022-09-24T00:25:09;15.30;14.80
11423;DHT22;5768;51.476;7.210;2022-09-24T00:30:29;15.50;14.90
11423;DHT22;5768;51.476;7.210;2022-09-24T00:35:33;15.50;15.00
11423;DHT22;5768;51.476;7.210;2022-09-24T00:40:37;15.60;15.10
11423;DHT22;5768;51.476;7.210;2022-09-24T00:45:39;15.70;15.10
11423;DHT22;5768;51.476;7.210;2022-09-24T00:50:43;15.80;15.10
11423;DHT22;5768;51.476;7.210;2022-09-24T00:55:48;15.80;15.20
11423;DHT22;5768;51.476;7.210;2022-09-24T01:00:56;15.90;15.20
11423;DHT22;5768;51.476;7.210;2022-09-24T01:06:04;15.80;15.30
11423;DHT22;5768;51.476;7.210;2022-09-24T01:11:17;15.80;15.40
11423;DHT22;5768;51.476;7.210;2022-09-24T01:16:31;15.70;15.50
11423;DHT22;5768;51.476;7.210;2022-09-24T01:21:42;15.80;15.70
11423;DHT22;5768;51.476;7.210;2022-09-24T01:27:00;15.80;15.60
11423;DHT22;5768;51.476;7.210;2022-09-24T01:32:12;15.70;15.90
11423;DHT22;5768;51.476;7.210;2022-09-24T01:37:21;15.50;16.20
11423;DHT22;5768;51.476;7.210;2022-09-24T01:42:28;15.50;16.40
11423;DHT22;5768;51.476;7.210;2022-09-24T01:47:35;15.70;16.50
11423;DHT22;5768;51.476;7.210;2022-09-24T01:52:44;15.70;16.40
11423;DHT22;5768;51.476;7.210;2022-09-24T01:57:55;15.60;16.50
11423;DHT22;5768;51.476;7.210;2022-09-24T02:03:07;15.60;16.70
11423;DHT22;5768;51.476;7.210;2022-09-24T02:08:15;15.70;16.70
11423;DHT22;5768;51.476;7.210;2022-09-24T02:13:22;15.70;16.70
11423;DHT22;5768;51.476;7.210;2022-09-24T02:18:31;15.80;16.80
11423;DHT22;5768;51.476;7.210;2022-09-24T02:23:37;15.70;16.80
11423;DHT22;5768;51.476;7.210;2022-09-24T02:28:43;15.70;16.90
11423;DHT22;5768;51.476;7.210;2022-09-24T02:33:49;15.70;17.00
11423;DHT22;5768;51.476;7.210;2022-09-24T02:39:09;15.60;17.00
11423;DHT22;5768;51.476;7.210;2022-09-24T02:44:11;15.60;17.20
11423;DHT22;5768;51.476;7.210;2022-09-24T02:49:16;15.50;17.40
11423;DHT22;5768;51.476;7.210;2022-09-24T02:54:18;15.60;17.40
11423;DHT22;5768;51.476;7.210;2022-09-24T02:59:21;15.60;17.50
11423;DHT22;5768;51.476;7.210;2022-09-24T03:04:25;15.70;17.50
11423;DHT22;5768;51.476;7.210;2022-09-24T03:09:28;15.70;17.50
11423;DHT22;5768;51.476;7.210;2022-09-24T03:14:30;15.70;17.50
11423;DHT22;5768;51.476;7.210;2022-09-24T03:19:34;15.70;17.60
11423;DHT22;5768;51.476;7.210;2022-09-24T03:24:36;15.70;17.60
11423;DHT22;5768;51.476;7.210;2022-09-24T03:29:38;15.70;17.70
11423;DHT22;5768;51.476;7.210;2022-09-24T03:34:59;15.70;17.70
11423;DHT22;5768;51.476;7.210;2022-09-24T03:40:03;15.60;17.80
11423;DHT22;5768;51.476;7.210;2022-09-24T03:45:08;15.60;17.80
11423;DHT22;5768;51.476;7.210;2022-09-24T03:50:12;15.50;17.70
11423;DHT22;5768;51.476;7.210;2022-09-24T03:55:14;15.50;17.80
11423;DHT22;5768;51.476;7.210;2022-09-24T04:00:17;15.60;17.80
11423;DHT22;5768;51.476;7.210;2022-09-24T04:05:20;15.60;17.80
11423;DHT22;5768;51.476;7.210;2022-09-24T04:10:23;15.50;17.80
11423;DHT22;5768;51.476;7.210;2022-09-24T04:15:25;15.50;17.90
11423;DHT22;5768;51.476;7.210;2022-09-24T04:20:29;15.40;18.00
11423;DHT22;5768;51.476;7.210;2022-09-24T04:25:33;15.30;18.00
11423;DHT22;5768;51.476;7.210;2022-09-24T04:30:35;15.30;18.10
11423;DHT22;5768;51.476;7.210;2022-09-24T04:35:40;15.30;18.10
11423;DHT22;5768;51.476;7.210;2022-09-24T04:40:42;15.30;18.00
11423;DHT22;5768;51.476;7.210;2022-09-24T04:45:45;15.30;18.00
11423;DHT22;5768;51.476;7.210;2022-09-24T04:50:49;15.30;17.80
11423;DHT22;5768;51.476;7.210;2022-09-24T04:55:51;15.30;17.80
11423;DHT22;5768;51.476;7.210;2022-09-24T05:00:53;15.30;17.80
11423;DHT22;5768;51.476;7.210;2022-09-24T05:05:58;15.30;17.90
11423;DHT22;5768;51.476;7.210;2022-09-24T05:11:01;15.20;18.00
11423;DHT22;5768;51.476;7.210;2022-09-24T05:16:04;15.20;18.10
11423;DHT22;5768;51.476;7.210;2022-09-24T05:21:07;15.20;18.20
11423;DHT22;5768;51.476;7.210;2022-09-24T05:26:10;15.20;18.40
11423;DHT22;5768;51.476;7.210;2022-09-24T05:31:29;15.20;18.40
11423;DHT22;5768;51.476;7.210;2022-09-24T05:36:33;15.20;18.30
11423;DHT22;5768;51.476;7.210;2022-09-24T05:41:36;15.20;18.40
11423;DHT22;5768;51.476;7.210;2022-09-24T05:46:38;15.20;18.30
11423;DHT22;5768;51.476;7.210;2022-09-24T05:51:41;15.20;18.40
11423;DHT22;5768;51.476;7.210;2022-09-24T05:56:44;15.20;18.40
11423;DHT22;5768;51.476;7.210;2022-09-24T06:01:46;15.30;18.10
11423;DHT22;5768;51.476;7.210;2022-09-24T06:06:50;15.40;18.10
11423;DHT22;5768;51.476;7.210;2022-09-24T06:11:53;15.40;18.20
11423;DHT22;5768;51.476;7.210;2022-09-24T06:16:56;15.50;18.40
11423;DHT22;5768;51.476;7.210;2022-09-24T06:21:59;15.60;18.00
11423;DHT22;5768;51.476;7.210;2022-09-24T06:27:01;15.60;17.90
11423;DHT22;5768;51.476;7.210;2022-09-24T06:32:03;15.70;17.80
11423;DHT22;5768;51.476;7.210;2022-09-24T06:37:07;15.90;17.80
11423;DHT22;5768;51.476;7.210;2022-09-24T06:42:10;16.00;17.60
11423;DHT22;5768;51.476;7.210;2022-09-24T06:47:13;16.00;17.50
11423;DHT22;5768;51.476;7.210;2022-09-24T06:52:16;16.20;17.40
11423;DHT22;5768;51.476;7.210;2022-09-24T06:57:20;16.30;17.40
11423;DHT22;5768;51.476;7.210;2022-09-24T07:02:22;16.40;17.00
11423;DHT22;5768;51.476;7.210;2022-09-24T07:07:25;16.50;17.00
11423;DHT22;5768;51.476;7.210;2022-09-24T07:12:33;16.60;16.80
11423;DHT22;5768;51.476;7.210;2022-09-24T07:17:37;16.80;16.80
11423;DHT22;5768;51.476;7.210;2022-09-24T07:22:42;17.00;16.60
11423;DHT22;5768;51.476;7.210;2022-09-24T07:27:44;16.90;16.80
11423;DHT22;5768;51.476;7.210;2022-09-24T07:32:46;17.10;16.60
11423;DHT22;5768;51.476;7.210;2022-09-24T07:37:57;17.30;16.60
11423;DHT22;5768;51.476;7.210;2022-09-24T07:43:00;17.60;16.50
11423;DHT22;5768;51.476;7.210;2022-09-24T07:48:03;17.60;16.10
11423;DHT22;5768;51.476;7.210;2022-09-24T07:53:09;17.70;16.00
11423;DHT22;5768;51.476;7.210;2022-09-24T07:58:13;17.80;15.90
11423;DHT22;5768;51.476;7.210;2022-09-24T08:03:15;17.90;16.00
11423;DHT22;5768;51.476;7.210;2022-09-24T08:08:18;17.70;16.00
11423;DHT22;5768;51.476;7.210;2022-09-24T08:13:20;17.70;16.00
11423;DHT22;5768;51.476;7.210;2022-09-24T08:18:28;17.70;15.80
11423;DHT22;5768;51.476;7.210;2022-09-24T08:23:33;17.80;15.80
11423;DHT22;5768;51.476;7.210;2022-09-24T08:28:36;17.90;15.70
11423;DHT22;5768;51.476;7.210;2022-09-24T08:33:40;18.40;15.50
11423;DHT22;5768;51.476;7.210;2022-09-24T08:38:44;18.80;15.20
11423;DHT22;5768;51.476;7.210;2022-09-24T08:43:52;18.90;15.10
11423;DHT22;5768;51.476;7.210;2022-09-24T08:49:01;18.90;15.10
11423;DHT22;5768;51.476;7.210;2022-09-24T08:54:09;19.20;14.90
11423;DHT22;5768;51.476;7.210;2022-09-24T08:59:25;18.90;15.00
11423;DHT22;5768;51.476;7.210;2022-09-24T09:04:36;18.80;14.90
11423;DHT22;5768;51.476;7.210;2022-09-24T09:09:50;18.90;15.00
11423;DHT22;5768;51.476;7.210;2022-09-24T09:15:00;19.20;14.80
11423;DHT22;5768;51.476;7.210;2022-09-24T09:20:09;19.20;14.80
11423;DHT22;5768;51.476;7.210;2022-09-24T09:25:20;19.20;14.70
11423;DHT22;5768;51.476;7.210;2022-09-24T09:30:25;19.30;14.60
11423;DHT22;5768;51.476;7.210;2022-09-24T09:35:34;19.80;14.50
11423;DHT22;5768;51.476;7.210;2022-09-24T09:40:48;19.90;14.20
11423;DHT22;5768;51.476;7.210;2022-09-24T09:46:05;19.60;14.20
11423;DHT22;5768;51.476;7.210;2022-09-24T09:51:17;19.60;14.20
11423;DHT22;5768;51.476;7.210;2022-09-24T09:56:25;19.70;14.30
11423;DHT22;5768;51.476;7.210;2022-09-24T10:01:32;20.00;14.00
11423;DHT22;5768;51.476;7.210;2022-09-24T10:06:42;19.50;14.10
11423;DHT22;5768;51.476;7.210;2022-09-24T10:11:46;19.80;14.10
11423;DHT22;5768;51.476;7.210;2022-09-24T10:16:52;20.10;13.80
11423;DHT22;5768;51.476;7.210;2022-09-24T10:21:56;20.10;14.10
11423;DHT22;5768;51.476;7.210;2022-09-24T10:27:09;20.30;13.70
11423;DHT22;5768;51.476;7.210;2022-09-24T10:32:14;20.70;13.60
11423;DHT22;5768;51.476;7.210;2022-09-24T10:37:18;20.30;13.20
11423;DHT22;5768;51.476;7.210;2022-09-24T10:42:24;19.90;13.30
11423;DHT22;5768;51.476;7.210;2022-09-24T10:47:34;20.10;13.30
11423;DHT22;5768;51.476;7.210;2022-09-24T10:52:45;20.50;13.20
11423;DHT22;5768;51.476;7.210;2022-09-24T10:57:58;20.90;13.20
11423;DHT22;5768;51.476;7.210;2022-09-24T11:03:25;20.90;13.00
11423;DHT22;5768;51.476;7.210;2022-09-24T11:09:00;20.30;13.20
11423;DHT22;5768;51.476;7.210;2022-09-24T11:14:23;20.60;13.10
11423;DHT22;5768;51.476;7.210;2022-09-24T11:20:04;20.50;13.10
11423;DHT22;5768;51.476;7.210;2022-09-24T11:25:31;20.10;13.30
11423;DHT22;5768;51.476;7.210;2022-09-24T11:30:48;20.00;13.30
11423;DHT22;5768;51.476;7.210;2022-09-24T11:36:07;20.20;13.30
11423;DHT22;5768;51.476;7.210;2022-09-24T11:41:28;19.70;13.30
11423;DHT22;5768;51.476;7.210;2022-09-24T11:46:47;19.60;13.50
11423;DHT22;5768;51.476;7.210;2022-09-24T11:52:04;20.10;13.30
11423;DHT22;5768;51.476;7.210;2022-09-24T11:57:14;20.30;13.40
11423;DHT22;5768;51.476;7.210;2022-09-24T12:02:27;20.20;13.50
11423;DHT22;5768;51.476;7.210;2022-09-24T12:07:37;20.50;13.50
11423;DHT22;5768;51.476;7.210;2022-09-24T12:12:45;20.60;13.50
11423;DHT22;5768;51.476;7.210;2022-09-24T12:17:55;20.20;13.60
11423;DHT22;5768;51.476;7.210;2022-09-24T12:23:04;20.40;13.50
11423;DHT22;5768;51.476;7.210;2022-09-24T12:28:14;20.30;13.50
11423;DHT22;5768;51.476;7.210;2022-09-24T12:33:43;19.90;13.50
11423;DHT22;5768;51.476;7.210;2022-09-24T12:38:56;20.00;13.70
11423;DHT22;5768;51.476;7.210;2022-09-24T12:44:09;20.50;13.50
11423;DHT22;5768;51.476;7.210;2022-09-24T12:49:30;21.10;13.20
11423;DHT22;5768;51.476;7.210;2022-09-24T12:54:35;21.80;13.00
11423;DHT22;5768;51.476;7.210;2022-09-24T12:59:47;21.70;12.90
11423;DHT22;5768;51.476;7.210;2022-09-24T13:05:15;21.60;13.00
11423;DHT22;5768;51.476;7.210;2022-09-24T13:10:28;21.20;13.20
11423;DHT22;5768;51.476;7.210;2022-09-24T13:15:34;20.70;13.40
11423;DHT22;5768;51.476;7.210;2022-09-24T13:20:41;20.30;13.40
11423;DHT22;5768;51.476;7.210;2022-09-24T13:25:53;20.30;13.40
11423;DHT22;5768;51.476;7.210;2022-09-24T13:31:02;20.30;13.50
11423;DHT22;5768;51.476;7.210;2022-09-24T13:36:18;20.00;13.80
11423;DHT22;5768;51.476;7.210;2022-09-24T13:41:34;19.50;14.30
11423;DHT22;5768;51.476;7.210;2022-09-24T13:46:50;19.30;14.60
11423;DHT22;5768;51.476;7.210;2022-09-24T13:52:07;19.30;14.80
11423;DHT22;5768;51.476;7.210;2022-09-24T13:57:19;19.30;14.90
11423;DHT22;5768;51.476;7.210;2022-09-24T14:02:25;19.40;15.10
11423;DHT22;5768;51.476;7.210;2022-09-24T14:07:30;19.30;15.20
11423;DHT22;5768;51.476;7.210;2022-09-24T14:12:32;19.30;15.20
11423;DHT22;5768;51.476;7.210;2022-09-24T14:17:35;19.20;15.20
11423;DHT22;5768;51.476;7.210;2022-09-24T14:22:39;19.10;15.50
11423;DHT22;5768;51.476;7.210;2022-09-24T14:27:48;19.00;15.50
11423;DHT22;5768;51.476;7.210;2022-09-24T14:32:54;19.00;15.50
11423;DHT22;5768;51.476;7.210;2022-09-24T14:38:02;19.00;15.50
11423;DHT22;5768;51.476;7.210;2022-09-24T14:43:16;18.90;15.70
11423;DHT22;5768;51.476;7.210;2022-09-24T14:48:27;18.80;15.80
11423;DHT22;5768;51.476;7.210;2022-09-24T14:53:34;18.70;15.80
11423;DHT22;5768;51.476;7.210;2022-09-24T14:58:37;18.60;15.90
11423;DHT22;5768;51.476;7.210;2022-09-24T15:03:42;18.60;16.00
11423;DHT22;5768;51.476;7.210;2022-09-24T15:08:56;18.40;16.20
11423;DHT22;5768;51.476;7.210;2022-09-24T15:14:10;18.40;16.30
11423;DHT22;5768;51.476;7.210;2022-09-24T15:19:17;18.30;16.30
11423;DHT22;5768;51.476;7.210;2022-09-24T15:24:23;18.30;16.40
11423;DHT22;5768;51.476;7.210;2022-09-24T15:29:25;18.30;16.50
11423;DHT22;5768;51.476;7.210;2022-09-24T15:34:28;18.30;16.40
11423;DHT22;5768;51.476;7.210;2022-09-24T15:39:31;18.20;16.40
11423;DHT22;5768;51.476;7.210;2022-09-24T15:44:33;18.20;16.70
11423;DHT22;5768;51.476;7.210;2022-09-24T15:49:36;18.00;16.70
11423;DHT22;5768;51.476;7.210;2022-09-24T15:54:39;18.10;16.60
11423;DHT22;5768;51.476;7.210;2022-09-24T15:59:42;18.10;16.60
11423;DHT22;5768;51.476;7.210;2022-09-24T16:04:44;18.00;16.30
11423;DHT22;5768;51.476;7.210;2022-09-24T16:09:48;17.90;16.40
11423;DHT22;5768;51.476;7.210;2022-09-24T16:14:50;18.00;16.60
11423;DHT22;5768;51.476;7.210;2022-09-24T16:19:53;17.90;16.50
11423;DHT22;5768;51.476;7.210;2022-09-24T16:24:57;17.90;16.60
11423;DHT22;5768;51.476;7.210;2022-09-24T16:29:59;17.90;16.80
11423;DHT22;5768;51.476;7.210;2022-09-24T16:35:02;17.80;17.00
11423;DHT22;5768;51.476;7.210;2022-09-24T16:40:07;17.70;17.10
11423;DHT22;5768;51.476;7.210;2022-09-24T16:45:10;17.80;17.30
11423;DHT22;5768;51.476;7.210;2022-09-24T16:50:12;17.70;17.40
11423;DHT22;5768;51.476;7.210;2022-09-24T16:55:16;17.70;17.40
11423;DHT22;5768;51.476;7.210;2022-09-24T17:00:18;17.60;17.40
11423;DHT22;5768;51.476;7.210;2022-09-24T17:05:21;17.40;17.80
11423;DHT22;5768;51.476;7.210;2022-09-24T17:10:27;17.40;17.60
11423;DHT22;5768;51.476;7.210;2022-09-24T17:15:29;17.40;17.80
11423;DHT22;5768;51.476;7.210;2022-09-24T17:20:31;17.30;17.90
11423;DHT22;5768;51.476;7.210;2022-09-24T17:25:35;17.30;18.10
11423;DHT22;5768;51.476;7.210;2022-09-24T17:30:37;17.20;17.90
11423;DHT22;5768;51.476;7.210;2022-09-24T17:35:39;17.20;17.90
11423;DHT22;5768;51.476;7.210;2022-09-24T17:40:52;17.20;18.00
11423;DHT22;5768;51.476;7.210;2022-09-24T17:45:55;17.10;17.90
11423;DHT22;5768;51.476;7.210;2022-09-24T17:50:59;17.20;17.90
11423;DHT22;5768;51.476;7.210;2022-09-24T17:56:06;17.10;17.80
11423;DHT22;5768;51.476;7.210;2022-09-24T18:01:10;17.10;17.80
11423;DHT22;5768;51.476;7.210;2022-09-24T18:06:13;17.10;17.80
11423;DHT22;5768;51.476;7.210;2022-09-24T18:11:19;17.10;17.70
11423;DHT22;5768;51.476;7.210;2022-09-24T18:16:24;17.10;17.70
11423;DHT22;5768;51.476;7.210;2022-09-24T18:21:29;17.10;17.60
11423;DHT22;5768;51.476;7.210;2022-09-24T18:26:34;17.10;17.60
11423;DHT22;5768;51.476;7.210;2022-09-24T18:31:38;17.00;17.60
11423;DHT22;5768;51.476;7.210;2022-09-24T18:36:42;17.00;17.70
11423;DHT22;5768;51.476;7.210;2022-09-24T18:41:47;16.90;17.90
11423;DHT22;5768;51.476;7.210;2022-09-24T18:46:49;16.80;17.80
11423;DHT22;5768;51.476;7.210;2022-09-24T18:51:51;16.80;17.80
11423;DHT22;5768;51.476;7.210;2022-09-24T18:56:55;16.70;17.90
11423;DHT22;5768;51.476;7.210;2022-09-24T19:01:57;16.70;17.90
11423;DHT22;5768;51.476;7.210;2022-09-24T19:06:59;16.70;17.80
11423;DHT22;5768;51.476;7.210;2022-09-24T19:12:03;16.60;17.90
11423;DHT22;5768;51.476;7.210;2022-09-24T19:17:08;16.60;18.00
11423;DHT22;5768;51.476;7.210;2022-09-24T19:22:10;16.60;17.90
11423;DHT22;5768;51.476;7.210;2022-09-24T19:27:14;16.60;17.80
11423;DHT22;5768;51.476;7.210;2022-09-24T19:32:16;16.60;18.00
11423;DHT22;5768;51.476;7.210;2022-09-24T19:37:18;16.50;17.90
11423;DHT22;5768;51.476;7.210;2022-09-24T19:42:22;16.50;17.90
11423;DHT22;5768;51.476;7.210;2022-09-24T19:47:27;16.50;17.90
11423;DHT22;5768;51.476;7.210;2022-09-24T19:52:29;16.50;17.80
11423;DHT22;5768;51.476;7.210;2022-09-24T19:57:33;16.50;17.80
11423;DHT22;5768;51.476;7.210;2022-09-24T20:02:35;16.50;17.90
11423;DHT22;5768;51.476;7.210;2022-09-24T20:07:37;16.40;17.80
11423;DHT22;5768;51.476;7.210;2022-09-24T20:12:45;16.30;17.80
11423;DHT22;5768;51.476;7.210;2022-09-24T20:17:51;16.30;17.90
11423;DHT22;5768;51.476;7.210;2022-09-24T20:22:54;16.20;17.90
11423;DHT22;5768;51.476;7.210;2022-09-24T20:28:01;16.10;18.00
11423;DHT22;5768;51.476;7.210;2022-09-24T20:33:04;16.10;17.90
11423;DHT22;5768;51.476;7.210;2022-09-24T20:38:09;16.10;17.90
11423;DHT22;5768;51.476;7.210;2022-09-24T20:43:13;16.10;18.10
11423;DHT22;5768;51.476;7.210;2022-09-24T20:48:17;15.70;18.00
11423;DHT22;5768;51.476;7.210;2022-09-24T20:53:19;15.80;18.00
11423;DHT22;5768;51.476;7.210;2022-09-24T20:58:42;15.90;17.90
11423;DHT22;5768;51.476;7.210;2022-09-24T21:04:04;15.90;18.00
11423;DHT22;5768;51.476;7.210;2022-09-24T21:09:08;15.80;18.00
11423;DHT22;5768;51.476;7.210;2022-09-24T21:14:12;15.90;18.10
11423;DHT22;5768;51.476;7.210;2022-09-24T21:19:14;15.90;18.10
11423;DHT22;5768;51.476;7.210;2022-09-24T21:24:17;16.00;18.10
11423;DHT22;5768;51.476;7.210;2022-09-24T21:29:21;16.10;18.00
11423;DHT22;5768;51.476;7.210;2022-09-24T21:34:23;16.10;18.00
11423;DHT22;5768;51.476;7.210;2022-09-24T21:39:27;16.20;18.10
11423;DHT22;5768;51.476;7.210;2022-09-24T21:44:31;16.20;18.10
11423;DHT22;5768;51.476;7.210;2022-09-24T21:49:33;16.20;18.20
11423;DHT22;5768;51.476;7.210;2022-09-24T21:54:36;16.10;18.20
11423;DHT22;5768;51.476;7.210;2022-09-24T21:59:40;16.10;18.40
11423;DHT22;5768;51.476;7.210;2022-09-24T22:05:03;16.00;18.50
11423;DHT22;5768;51.476;7.210;2022-09-24T22:10:07;15.90;18.60
11423;DHT22;5768;51.476;7.210;2022-09-24T22:15:11;15.90;18.70
11423;DHT22;5768;51.476;7.210;2022-09-24T22:20:14;16.00;18.60
11423;DHT22;5768;51.476;7.210;2022-09-24T22:25:16;16.00;18.60
11423;DHT22;5768;51.476;7.210;2022-09-24T22:30:20;15.90;18.60
11423;DHT22;5768;51.476;7.210;2022-09-24T22:35:22;15.90;18.70
11423;DHT22;5768;51.476;7.210;2022-09-24T22:40:42;15.80;18.80
11423;DHT22;5768;51.476;7.210;2022-09-24T22:45:46;15.60;18.90
11423;DHT22;5768;51.476;7.210;2022-09-24T22:50:48;15.60;19.00
11423;DHT22;5768;51.476;7.210;2022-09-24T22:56:01;15.50;19.10
11423;DHT22;5768;51.476;7.210;2022-09-24T23:01:07;15.40;19.00
11423;DHT22;5768;51.476;7.210;2022-09-24T23:06:10;15.40;19.10
11423;DHT22;5768;51.476;7.210;2022-09-24T23:11:15;15.50;19.00
11423;DHT22;5768;51.476;7.210;2022-09-24T23:16:22;15.50;18.90
11423;DHT22;5768;51.476;7.210;2022-09-24T23:21:29;15.60;18.70
11423;DHT22;5768;51.476;7.210;2022-09-24T23:26:32;15.50;18.50
11423;DHT22;5768;51.476;7.210;2022-09-24T23:31:37;15.50;18.40
11423;DHT22;5768;51.476;7.210;2022-09-24T23:36:40;15.40;18.50
11423;DHT22;5768;51.476;7.210;2022-09-24T23:41:44;15.30;18.60
11423;DHT22;5768;51.476;7.210;2022-09-24T23:46:48;15.30;18.60
11423;DHT22;5768;51.476;7.210;2022-09-24T23:51:50;15.30;18.70
11423;DHT22;5768;51.476;7.210;2022-09-24T23:56:52;15.50;18.50
